Time;durP1;ratioP1;P1;durP2;ratioP2;P2;SDS_P1;SDS_P2;PMS_P1;PMS_P2;Temp;Humidity;BMP_temperature;BMP_pressure;BME280_temperature;BME280_humidity;BME280_pressure;Samples;Min_cycle;Max_cycle;Signal;HPM_P1;HPM_P2
2023/02/28 00:00:58;;;;;;;10.18;2.47;;;;;;;-0.89;100.00;102252.97;5126644;28;20026;-71
2023/02/28 00:03:28;;;;;;;7.60;2.85;;;;;;;-0.90;100.00;102252.94;5121124;28;20023;-70
2023/02/28 00:05:58;;;;;;;5.63;2.60;;;;;;;-0.90;100.00;102258.06;5140607;28;20118;-70
2023/02/28 00:08:28;;;;;;;5.53;2.55;;;;;;;-0.93;100.00;102255.41;5139238;28;20424;-70
2023/02/28 00:11:04;;;;;;;9.70;2.47;;;;;;;-0.98;100.00;102252.66;5145889;28;20061;-69
2023/02/28 00:13:35;;;;;;;;;;;;;;;-0.97;100.00;102258.66;5132708;28;20027;-71
2023/02/28 00:16:14;;;;;;;6.22;2.72;;;;;;;-0.86;100.00;102253.09;5151647;28;20008;-70
2023/02/28 00:18:45;;;;;;;5.80;2.58;;;;;;;-0.90;100.00;102250.38;5143746;28;20030;-71
2023/02/28 00:21:17;;;;;;;6.00;2.70;;;;;;;-0.91;100.00;102254.63;5152387;28;20037;-70
2023/02/28 00:23:47;;;;;;;5.82;2.65;;;;;;;-1.07;100.00;102256.56;5147326;28;20399;-70
2023/02/28 00:26:18;;;;;;;7.38;2.70;;;;;;;-1.16;100.00;102251.06;5152017;28;20030;-70
2023/02/28 00:28:48;;;;;;;5.68;2.53;;;;;;;-1.27;100.00;102255.78;5141001;28;20121;-69
2023/02/28 00:31:19;;;;;;;5.82;2.40;;;;;;;-1.30;100.00;102252.22;5146161;28;20034;-71
2023/02/28 00:33:50;;;;;;;5.82;2.67;;;;;;;-1.28;100.00;102256.63;5141482;28;20031;-70
2023/02/28 00:36:21;;;;;;;7.70;2.63;;;;;;;-1.32;100.00;102248.75;5152299;28;20093;-71
2023/02/28 00:38:51;;;;;;;5.65;2.58;;;;;;;-1.30;100.00;102249.66;5150018;28;20030;-70
2023/02/28 00:41:21;;;;;;;7.95;2.72;;;;;;;-1.26;100.00;102254.97;5148706;28;20106;-69
2023/02/28 00:43:51;;;;;;;8.68;2.42;;;;;;;-1.27;100.00;102249.81;5149443;28;20508;-71
2023/02/28 00:46:22;;;;;;;5.57;2.50;;;;;;;-1.14;100.00;102249.44;5140682;28;20051;-70
2023/02/28 00:48:52;;;;;;;4.38;2.05;;;;;;;-1.22;100.00;102253.41;5149058;28;20038;-70
2023/02/28 00:51:22;;;;;;;5.80;2.55;;;;;;;-1.18;100.00;102242.44;5131892;28;20493;-70
2023/02/28 00:53:52;;;;;;;8.15;2.80;;;;;;;-1.15;100.00;102247.69;5123347;28;20026;-70
2023/02/28 00:56:23;;;;;;;4.35;2.33;;;;;;;-1.20;100.00;102254.34;5146247;28;20592;-71
2023/02/28 00:58:53;;;;;;;4.78;2.58;;;;;;;-1.15;100.00;102250.25;5141764;28;20030;-70
2023/02/28 01:01:23;;;;;;;6.00;2.42;;;;;;;-1.19;100.00;102251.84;5150965;28;20417;-71
2023/02/28 01:03:54;;;;;;;7.03;2.30;;;;;;;-1.25;100.00;102245.63;5149379;28;20117;-71
2023/02/28 01:06:24;;;;;;;5.70;2.42;;;;;;;-1.31;100.00;102253.03;5150911;23;20042;-76
2023/02/28 01:08:54;;;;;;;6.53;2.72;;;;;;;-1.22;100.00;102251.72;5125575;28;20035;-76
2023/02/28 01:11:25;;;;;;;6.60;2.67;;;;;;;-1.21;100.00;102247.47;5108179;28;20030;-74
2023/02/28 01:13:55;;;;;;;5.88;2.60;;;;;;;-1.02;100.00;102244.78;5097508;28;20596;-76
2023/02/28 01:16:27;;;;;;;6.30;2.60;;;;;;;-1.08;100.00;102237.72;5129911;28;20037;-76
2023/02/28 01:18:57;;;;;;;6.78;3.03;;;;;;;-0.92;100.00;102236.63;5154495;28;20041;-76
2023/02/28 01:21:29;;;;;;;6.47;2.83;;;;;;;-0.73;100.00;102239.03;5145007;28;20031;-76
2023/02/28 01:23:59;;;;;;;9.02;3.15;;;;;;;-0.65;100.00;102228.22;5143970;28;20095;-77
2023/02/28 01:26:30;;;;;;;7.63;3.55;;;;;;;-0.89;100.00;102231.59;5122239;28;20050;-77
2023/02/28 01:29:00;;;;;;;7.85;3.20;;;;;;;-0.91;100.00;102238.38;5140486;28;20038;-77
2023/02/28 01:31:31;;;;;;;8.15;3.20;;;;;;;-0.92;100.00;102236.63;5143892;28;20030;-77
2023/02/28 01:34:02;;;;;;;8.65;3.60;;;;;;;-0.90;100.00;102234.97;5146573;28;20034;-77
2023/02/28 01:36:32;;;;;;;10.23;3.13;;;;;;;-0.95;100.00;102232.25;5141891;28;20035;-76
2023/02/28 01:39:03;;;;;;;7.32;3.10;;;;;;;-0.95;100.00;102232.25;5134060;28;20092;-77
2023/02/28 01:41:34;;;;;;;10.32;3.60;;;;;;;-0.93;100.00;102235.72;5132106;28;20563;-77
2023/02/28 01:44:26;;;;;;;8.48;3.20;;;;;;;-0.94;100.00;102226.28;5147463;28;20409;-72
2023/02/28 01:46:57;;;;;;;7.72;2.90;;;;;;;-0.95;100.00;102231.34;5145492;28;20073;-77
2023/02/28 01:49:27;;;;;;;7.15;3.08;;;;;;;-0.99;100.00;102225.25;5148478;28;20057;-77
2023/02/28 01:51:57;;;;;;;7.15;3.17;;;;;;;-0.86;100.00;102222.28;5147257;28;20343;-76
2023/02/28 01:54:31;;;;;;;5.57;2.70;;;;;;;-0.84;100.00;102215.56;5147863;28;20383;-77
2023/02/28 01:57:09;;;;;;;6.70;2.67;;;;;;;-0.96;100.00;102225.34;5142804;28;20034;-76
2023/02/28 02:00:04;;;;;;;8.15;3.40;;;;;;;-0.92;100.00;102216.94;5142141;28;20476;-76
2023/02/28 02:02:36;;;;;;;7.18;2.80;;;;;;;-0.93;100.00;102217.78;5124030;28;20034;-73
2023/02/28 02:05:10;;;;;;;6.32;2.63;;;;;;;-0.78;100.00;102220.00;5146767;28;20023;-77
2023/02/28 02:07:43;;;;;;;7.90;2.85;;;;;;;-0.80;100.00;102216.50;5145923;28;20117;-75
2023/02/28 02:10:17;;;;;;;7.47;2.67;;;;;;;-0.94;100.00;102215.13;5149308;28;20030;-77
2023/02/28 02:13:15;;;;;;;8.93;2.70;;;;;;;-1.02;100.00;102226.81;5137787;28;20125;-75
2023/02/28 02:16:10;;;;;;;9.15;3.03;;;;;;;-1.08;100.00;102213.78;5134756;28;20124;-77
2023/02/28 02:18:46;;;;;;;6.97;2.80;;;;;;;-1.20;100.00;102218.44;5145179;28;20085;-76
2023/02/28 02:21:37;;;;;;;6.47;3.17;;;;;;;-1.17;100.00;102205.72;5145504;28;20525;-77
2023/02/28 02:24:28;;;;;;;6.38;2.78;;;;;;;-1.02;100.00;102211.44;5134691;28;20452;-77
2023/02/28 02:27:22;;;;;;;6.35;2.80;;;;;;;-1.06;100.00;102207.00;5139752;28;20556;-77
2023/02/28 02:30:13;;;;;;;5.78;2.60;;;;;;;-0.92;100.00;102208.41;5147658;28;20022;-77
2023/02/28 02:33:06;;;;;;;7.82;3.55;;;;;;;-0.71;100.00;102209.16;5149761;28;20077;-77
2023/02/28 02:35:46;;;;;;;7.80;3.03;;;;;;;-0.83;100.00;102212.16;5148290;28;20030;-75
2023/02/28 02:38:45;;;;;;;8.30;3.50;;;;;;;-0.84;100.00;102205.28;5132995;28;20022;-74
2023/02/28 02:41:50;;;;;;;5.53;2.95;;;;;;;-1.00;100.00;102209.78;5116051;28;20093;-78
2023/02/28 02:44:26;;;;;;;6.15;2.70;;;;;;;-0.63;100.00;102207.72;5134601;28;20254;-77
2023/02/28 02:47:06;;;;;;;6.03;3.05;;;;;;;-0.79;100.00;102218.25;5140302;28;20045;-76
2023/02/28 02:49:39;;;;;;;7.82;3.20;;;;;;;-0.82;100.00;102210.47;5136417;28;20126;-77
2023/02/28 02:52:14;;;;;;;8.20;2.90;;;;;;;-0.76;100.00;102214.13;5141889;28;20033;-76
2023/02/28 02:54:48;;;;;;;6.53;3.15;;;;;;;-0.48;100.00;102227.13;5124221;28;20133;-77
2023/02/28 02:57:29;;;;;;;8.27;3.25;;;;;;;-0.55;100.00;102232.00;5137682;28;20503;-77
2023/02/28 03:00:01;;;;;;;7.32;3.20;;;;;;;-0.65;100.00;102233.34;5123953;28;20022;-76
2023/02/28 03:02:34;;;;;;;6.57;2.90;;;;;;;-0.58;100.00;102232.75;5137144;28;20686;-77
2023/02/28 03:05:11;;;;;;;7.88;3.22;;;;;;;-0.74;100.00;102229.59;5137373;28;20038;-76
2023/02/28 03:07:42;;;;;;;6.03;3.13;;;;;;;-0.61;100.00;102231.75;5089298;28;1096416;-77
2023/02/28 03:10:29;;;;;;;5.80;3.22;;;;;;;-0.46;100.00;102229.72;5148403;28;20030;-77
2023/02/28 03:13:38;;;;;;;7.50;3.53;;;;;;;-0.44;100.00;102233.22;5142943;28;20026;-77
2023/02/28 03:16:27;;;;;;;5.53;2.80;;;;;;;-0.40;100.00;102223.13;5138419;28;20046;-76
2023/02/28 03:19:16;;;;;;;6.53;3.13;;;;;;;-0.14;100.00;102218.88;5142280;28;20035;-77
2023/02/28 03:22:20;;;;;;;7.03;3.00;;;;;;;-0.03;100.00;102219.28;5127392;28;20049;-77
2023/02/28 03:24:59;;;;;;;10.25;2.83;;;;;;;-0.11;100.00;102234.38;5142541;28;20041;-76
2023/02/28 03:27:39;;;;;;;7.07;2.50;;;;;;;-0.12;100.00;102236.09;5140687;28;20026;-76
2023/02/28 03:30:22;;;;;;;7.43;2.50;;;;;;;-0.06;100.00;102228.56;5148076;28;20500;-77
2023/02/28 03:33:14;;;;;;;4.20;2.30;;;;;;;-0.19;100.00;102228.13;5141569;28;20042;-78
2023/02/28 03:35:59;;;;;;;5.63;2.20;;;;;;;0.00;100.00;102228.81;5129653;28;20039;-77
2023/02/28 03:38:36;;;;;;;5.82;2.88;;;;;;;-0.04;98.90;102231.22;5149813;28;20027;-77
2023/02/28 03:41:16;;;;;;;4.68;2.63;;;;;;;0.05;100.00;102233.25;5145282;28;20031;-77
2023/02/28 03:43:53;;;;;;;6.68;2.83;;;;;;;-0.28;100.00;102230.38;5143537;28;20477;-76
2023/02/28 03:46:26;;;;;;;4.88;2.63;;;;;;;-0.30;100.00;102226.88;5147798;28;20055;-77
2023/02/28 03:49:05;;;;;;;6.78;2.92;;;;;;;-0.35;100.00;102234.41;5120458;28;20027;-77
2023/02/28 03:51:38;;;;;;;5.80;2.85;;;;;;;-0.41;100.00;102238.50;5147469;28;20023;-73
2023/02/28 03:54:31;;;;;;;7.18;2.60;;;;;;;-0.50;100.00;102230.44;5147117;28;20026;-77
2023/02/28 03:57:15;;;;;;;5.63;2.50;;;;;;;-0.54;100.00;102226.03;5141262;28;20066;-77
2023/02/28 04:00:04;;;;;;;6.97;2.85;;;;;;;-0.56;100.00;102237.94;5144882;28;20481;-76
2023/02/28 04:02:34;;;;;;;5.53;2.55;;;;;;;-0.46;100.00;102227.16;5126350;28;20480;-76
2023/02/28 04:05:06;;;;;;;8.15;2.85;;;;;;;-0.41;100.00;102235.91;5146044;28;20038;-77
2023/02/28 04:07:37;;;;;;;5.28;2.58;;;;;;;-0.55;100.00;102229.44;5149860;28;20041;-75
2023/02/28 04:10:07;;;;;;;5.40;2.95;;;;;;;-0.35;100.00;102223.28;5130239;28;20038;-77
2023/02/28 04:12:37;;;;;;;7.72;3.20;;;;;;;-0.28;100.00;102220.97;5140693;28;20015;-76
2023/02/28 04:15:08;;;;;;;4.03;2.40;;;;;;;-0.04;100.00;102226.06;5150086;28;20109;-77
2023/02/28 04:17:38;;;;;;;4.90;2.53;;;;;;;-0.07;100.00;102215.69;5140495;28;20030;-77
2023/02/28 04:20:09;;;;;;;4.18;2.08;;;;;;;0.13;100.00;102224.09;5143481;28;20494;-76
2023/02/28 04:22:40;;;;;;;5.18;2.40;;;;;;;0.14;96.68;102228.41;5139626;28;20408;-75
2023/02/28 04:25:10;;;;;;;5.13;2.22;;;;;;;0.15;96.35;102225.03;5149951;28;20058;-77
2023/02/28 04:27:40;;;;;;;4.72;2.05;;;;;;;0.12;94.47;102224.94;5151354;28;20034;-77
2023/02/28 04:30:11;;;;;;;3.05;1.80;;;;;;;0.09;93.75;102237.69;5148714;28;20175;-77
2023/02/28 04:32:41;;;;;;;2.75;1.70;;;;;;;0.31;94.60;102231.50;5151209;28;20027;-76
2023/02/28 04:35:12;;;;;;;4.57;1.75;;;;;;;0.28;93.14;102224.59;5131643;28;20523;-77
2023/02/28 04:37:42;;;;;;;5.20;1.80;;;;;;;0.36;93.66;102224.84;5148373;28;20039;-76
2023/02/28 04:40:12;;;;;;;4.90;1.83;;;;;;;0.29;93.56;102228.91;5155350;28;20030;-76
2023/02/28 04:42:43;;;;;;;4.93;2.10;;;;;;;0.30;94.39;102224.63;5139310;28;20034;-77
2023/02/28 04:45:13;;;;;;;6.57;1.88;;;;;;;0.23;93.96;102235.56;5148945;28;20038;-77
2023/02/28 04:47:43;;;;;;;11.30;2.00;;;;;;;0.16;95.03;102231.00;5147031;28;20199;-75
2023/02/28 04:50:14;;;;;;;5.90;2.15;;;;;;;0.15;94.87;102235.31;5141853;28;20126;-78
2023/02/28 04:52:44;;;;;;;6.07;2.03;;;;;;;0.25;94.65;102232.19;5134879;28;20053;-77
2023/02/28 04:55:15;;;;;;;4.10;1.80;;;;;;;0.18;94.08;102237.13;5142622;28;20126;-76
2023/02/28 04:57:45;;;;;;;3.78;1.60;;;;;;;0.21;93.73;102238.06;5147158;28;20444;-76
2023/02/28 05:00:16;;;;;;;3.00;1.70;;;;;;;0.25;93.42;102234.75;5140376;28;20109;-76
2023/02/28 05:02:46;;;;;;;3.10;1.52;;;;;;;0.21;93.54;102230.34;5127569;28;20112;-77
2023/02/28 05:05:18;;;;;;;2.90;1.60;;;;;;;0.12;93.42;102234.31;5144801;28;20030;-78
2023/02/28 05:07:49;;;;;;;5.22;1.75;;;;;;;0.05;94.29;102238.38;5139860;28;20037;-77
2023/02/28 05:10:19;;;;;;;4.35;1.95;;;;;;;0.09;94.85;102235.13;5147992;28;20416;-77
2023/02/28 05:12:49;;;;;;;9.10;1.98;;;;;;;-0.01;94.22;102229.59;5141692;28;20026;-76
2023/02/28 05:15:20;;;;;;;4.15;1.63;;;;;;;0.09;94.66;102229.97;5138789;28;20489;-76
2023/02/28 05:17:50;;;;;;;4.28;1.90;;;;;;;0.13;95.32;102230.94;5143699;28;20097;-77
2023/02/28 05:20:20;;;;;;;4.03;1.75;;;;;;;0.11;94.79;102233.47;5143563;28;20334;-76
2023/02/28 05:22:52;;;;;;;4.13;1.70;;;;;;;0.20;94.19;102228.59;5138928;28;20054;-77
2023/02/28 05:25:22;;;;;;;5.53;2.10;;;;;;;0.24;93.49;102224.44;5124539;28;20026;-77
2023/02/28 05:27:53;;;;;;;3.28;1.52;;;;;;;0.25;92.84;102232.19;5146493;28;20436;-77
2023/02/28 05:30:23;;;;;;;3.75;1.90;;;;;;;0.40;92.59;102226.69;5143726;28;20058;-76
2023/02/28 05:32:53;;;;;;;3.53;1.65;;;;;;;0.28;91.88;102240.03;5142736;28;20199;-77
2023/02/28 05:35:24;;;;;;;4.10;1.73;;;;;;;0.26;91.96;102235.66;5142598;28;20335;-77
2023/02/28 05:37:55;;;;;;;6.75;2.00;;;;;;;0.10;93.51;102236.84;5144930;28;20041;-77
2023/02/28 05:40:25;;;;;;;7.68;2.08;;;;;;;0.07;94.16;102238.44;5145159;28;20485;-76
2023/02/28 05:42:55;;;;;;;5.80;1.80;;;;;;;0.25;94.16;102232.19;5140209;28;20042;-77
2023/02/28 05:45:26;;;;;;;4.35;1.90;;;;;;;0.20;92.05;102238.88;5148935;28;20305;-77
2023/02/28 05:47:56;;;;;;;4.22;1.83;;;;;;;0.12;93.01;102239.47;5138689;28;20105;-76
2023/02/28 05:50:26;;;;;;;5.85;2.05;;;;;;;-0.03;94.49;102247.53;5144702;28;20070;-76
2023/02/28 05:52:57;;;;;;;3.17;1.77;;;;;;;0.15;93.84;102243.00;5136728;28;20018;-73
2023/02/28 05:55:27;;;;;;;4.38;2.15;;;;;;;0.10;92.80;102242.00;5125365;28;20310;-76
2023/02/28 05:57:57;;;;;;;3.55;1.90;;;;;;;0.14;92.19;102245.53;5129280;28;20019;-76
2023/02/28 06:00:37;;;;;;;4.65;2.20;;;;;;;0.21;92.40;102245.78;5146600;28;20027;-76
2023/02/28 06:03:07;;;;;;;3.28;1.73;;;;;;;0.20;92.54;102249.16;5137675;28;20768;-77
2023/02/28 06:05:38;;;;;;;4.65;2.17;;;;;;;0.12;92.32;102254.88;5138432;28;20150;-74
2023/02/28 06:08:08;;;;;;;5.95;2.03;;;;;;;-0.03;93.17;102253.50;5131800;28;20238;-76
2023/02/28 06:10:39;;;;;;;5.40;1.90;;;;;;;-0.13;92.55;102261.72;5137843;28;20600;-76
2023/02/28 06:13:09;;;;;;;4.97;2.00;;;;;;;-0.14;93.31;102265.09;5147627;28;20308;-76
2023/02/28 06:15:40;;;;;;;6.03;2.50;;;;;;;-0.20;93.21;102257.19;5144619;28;20030;-77
2023/02/28 06:18:10;;;;;;;4.38;1.80;;;;;;;-0.19;92.85;102266.66;5147115;28;20063;-76
2023/02/28 06:20:42;;;;;;;4.15;1.92;;;;;;;-0.17;92.40;102267.56;5147000;28;20069;-76
2023/02/28 06:23:12;;;;;;;5.90;2.28;;;;;;;-0.10;92.84;102269.53;5148636;28;20034;-74
2023/02/28 06:25:45;;;;;;;5.25;2.30;;;;;;;-0.11;93.29;102268.66;5146391;28;20065;-77
2023/02/28 06:28:15;;;;;;;4.13;2.00;;;;;;;-0.03;92.59;102268.09;5145137;28;20249;-76
2023/02/28 06:30:46;;;;;;;4.75;2.28;;;;;;;-0.06;93.11;102264.53;5139483;28;20389;-77
2023/02/28 06:33:16;;;;;;;4.53;1.80;;;;;;;0.02;93.05;102269.13;5149183;28;20384;-77
2023/02/28 06:35:49;;;;;;;3.30;1.73;;;;;;;-0.01;92.82;102279.31;5143513;28;20035;-76
2023/02/28 06:38:20;;;;;;;3.53;1.70;;;;;;;0.06;92.42;102275.25;5141019;28;20140;-77
2023/02/28 06:40:55;;;;;;;4.90;2.08;;;;;;;0.08;93.03;102273.59;5147808;28;20125;-77
2023/02/28 06:43:32;;;;;;;4.65;2.17;;;;;;;0.03;92.18;102277.72;5138998;28;20064;-77
2023/02/28 06:46:06;;;;;;;6.38;1.67;;;;;;;0.26;91.83;102280.22;5148841;28;20045;-77
2023/02/28 06:48:36;;;;;;;6.78;1.90;;;;;;;0.33;91.47;102281.28;5145554;28;20081;-77
2023/02/28 06:51:21;;;;;;;3.97;1.90;;;;;;;0.33;90.80;102287.31;5149028;28;20026;-76
2023/02/28 06:53:52;;;;;;;3.50;1.75;;;;;;;0.19;91.60;102291.13;5133771;28;20109;-77
2023/02/28 06:56:22;;;;;;;5.20;1.80;;;;;;;0.25;91.15;102291.31;5146881;28;20110;-76
2023/02/28 06:58:52;;;;;;;3.17;1.70;;;;;;;0.30;91.25;102287.22;5141714;28;20026;-77
2023/02/28 07:01:24;;;;;;;8.95;2.10;;;;;;;0.37;90.67;102288.28;5142298;28;20392;-74
2023/02/28 07:03:54;;;;;;;5.15;2.20;;;;;;;0.25;90.94;102296.44;5143726;28;20034;-76
2023/02/28 07:06:25;;;;;;;5.47;1.55;;;;;;;0.20;92.21;102292.88;5163617;23;20050;-71
2023/02/28 07:08:55;;;;;;;4.55;1.70;;;;;;;0.34;91.41;102299.34;5150720;28;20044;-71
2023/02/28 07:11:27;;;;;;;3.58;1.70;;;;;;;0.25;90.96;102296.44;5149074;28;20413;-72
2023/02/28 07:13:58;;;;;;;3.17;1.70;;;;;;;0.31;91.24;102301.81;5148535;28;20037;-72
2023/02/28 07:16:28;;;;;;;5.53;1.70;;;;;;;0.34;91.88;102301.91;5143405;28;20030;-74
2023/02/28 07:18:58;;;;;;;3.55;1.67;;;;;;;0.41;91.36;102298.69;5135924;28;20030;-71
2023/02/28 07:21:29;;;;;;;3.63;1.58;;;;;;;0.54;91.59;102312.88;5149527;28;20130;-72
2023/02/28 07:23:59;;;;;;;5.43;1.70;;;;;;;0.58;90.87;102314.69;5148489;28;20034;-71
2023/02/28 07:26:29;;;;;;;4.38;1.35;;;;;;;0.79;90.70;102303.41;5143991;28;20298;-72
2023/02/28 07:29:00;;;;;;;3.63;1.67;;;;;;;0.90;90.24;102303.72;5143799;28;20122;-73
2023/02/28 07:31:30;;;;;;;3.75;1.80;;;;;;;0.87;90.18;102304.50;5148668;28;20089;-74
2023/02/28 07:34:00;;;;;;;3.42;1.70;;;;;;;1.03;89.61;102311.84;5153262;28;20037;-73
2023/02/28 07:36:30;;;;;;;3.85;1.42;;;;;;;1.31;87.58;102298.09;5153166;28;20053;-73
2023/02/28 07:39:01;;;;;;;4.55;1.70;;;;;;;1.55;85.81;102303.97;5154213;28;20027;-74
2023/02/28 07:41:33;;;;;;;3.22;1.30;;;;;;;1.47;85.99;102296.03;5152796;28;20114;-70
2023/02/28 07:44:04;;;;;;;2.92;1.55;;;;;;;1.76;84.36;102295.13;5154766;28;20033;-73
2023/02/28 07:46:35;;;;;;;3.42;1.60;;;;;;;1.75;83.60;102298.53;5154933;28;20034;-73
2023/02/28 07:49:05;;;;;;;5.50;1.77;;;;;;;3.32;80.66;102292.09;5161649;28;20038;-74
2023/02/28 07:51:36;;;;;;;7.05;2.00;;;;;;;4.93;73.85;102283.81;5152943;28;20028;-73
2023/02/28 07:54:06;;;;;;;3.05;1.52;;;;;;;6.95;68.07;102278.19;5155586;28;20026;-73
2023/02/28 07:56:36;;;;;;;4.55;2.00;;;;;;;8.38;62.78;102279.63;5142675;28;20031;-73
2023/02/28 07:59:06;;;;;;;3.78;1.95;;;;;;;8.59;62.49;102267.44;5149222;28;20034;-73
2023/02/28 08:01:37;;;;;;;4.10;1.80;;;;;;;9.46;60.32;102260.28;5150766;28;20360;-73
2023/02/28 08:04:08;;;;;;;5.95;1.70;;;;;;;9.57;58.44;102266.34;5155969;28;20022;-76
2023/02/28 08:06:38;;;;;;;2.75;1.40;;;;;;;8.98;59.58;102269.13;5154574;28;20531;-73
2023/02/28 08:09:08;;;;;;;3.97;1.60;;;;;;;9.33;60.05;102263.81;5165659;28;20082;-74
2023/02/28 08:11:39;;;;;;;3.45;1.10;;;;;;;9.05;59.91;102273.47;5151501;28;20088;-73
2023/02/28 08:14:09;;;;;;;5.95;1.38;;;;;;;9.20;60.98;102262.13;5140316;28;20199;-76
2023/02/28 08:16:39;;;;;;;2.38;1.05;;;;;;;7.86;62.76;102275.16;5157415;28;20166;-74
2023/02/28 08:19:09;;;;;;;4.13;1.50;;;;;;;7.82;64.14;102271.66;5152979;28;20144;-74
2023/02/28 08:21:40;;;;;;;3.28;1.40;;;;;;;7.50;64.34;102277.66;5149607;28;20384;-73
2023/02/28 08:24:10;;;;;;;3.28;1.10;;;;;;;8.23;63.17;102280.44;5146846;28;20019;-76
2023/02/28 08:26:40;;;;;;;2.65;1.27;;;;;;;9.16;61.57;102264.75;5135113;28;20050;-76
2023/02/28 08:29:11;;;;;;;3.20;1.10;;;;;;;9.26;60.86;102272.53;5148335;28;20529;-75
2023/02/28 08:31:42;;;;;;;5.43;2.10;;;;;;;9.82;60.46;102261.84;5147842;28;20025;-74
2023/02/28 08:34:14;;;;;;;5.18;1.20;;;;;;;8.93;61.18;102266.53;5150512;28;20791;-75
2023/02/28 08:36:45;;;;;;;3.67;1.20;;;;;;;9.62;61.75;102269.78;5156615;28;20104;-75
2023/02/28 08:39:15;;;;;;;2.75;1.30;;;;;;;9.12;61.69;102269.97;5149012;28;20034;-74
2023/02/28 08:41:46;;;;;;;8.68;1.45;;;;;;;9.04;61.42;102274.34;5147982;28;20088;-74
2023/02/28 08:44:16;;;;;;;2.67;1.33;;;;;;;9.06;62.13;102273.44;5152432;28;20030;-74
2023/02/28 08:46:46;;;;;;;2.70;1.30;;;;;;;9.70;59.79;102270.63;5129594;28;20149;-74
2023/02/28 08:49:17;;;;;;;3.38;1.00;;;;;;;9.09;60.12;102278.66;5153193;28;20834;-75
2023/02/28 08:51:48;;;;;;;3.25;1.05;;;;;;;8.71;61.22;102280.47;5130186;28;20576;-73
2023/02/28 08:54:19;;;;;;;2.97;0.98;;;;;;;9.19;61.85;102277.78;5146403;28;20066;-74
2023/02/28 08:56:49;;;;;;;2.70;1.20;;;;;;;9.00;62.17;102277.81;5147948;28;20038;-74
2023/02/28 08:59:20;;;;;;;3.13;1.30;;;;;;;9.78;60.13;102268.84;5145570;28;20038;-75
2023/02/28 09:01:50;;;;;;;3.33;1.38;;;;;;;9.40;60.52;102275.09;5146794;28;20480;-74
2023/02/28 09:04:20;;;;;;;3.33;1.38;;;;;;;8.86;61.69;102279.59;5145526;28;20121;-73
2023/02/28 09:06:51;;;;;;;3.55;1.27;;;;;;;9.44;60.44;102287.25;5151405;28;20027;-73
2023/02/28 09:09:21;;;;;;;2.95;1.10;;;;;;;8.62;61.07;102288.31;5147322;28;20428;-73
2023/02/28 09:11:51;;;;;;;3.72;1.23;;;;;;;8.34;61.74;102288.28;5144502;28;20030;-75
2023/02/28 09:14:21;;;;;;;3.00;1.33;;;;;;;8.54;62.18;102289.19;5147970;28;20388;-75
2023/02/28 09:16:52;;;;;;;2.33;1.30;;;;;;;7.30;64.95;102289.66;5144920;28;20411;-73
2023/02/28 09:19:22;;;;;;;3.05;1.50;;;;;;;7.01;66.32;102288.66;5145239;28;20026;-74
2023/02/28 09:21:52;;;;;;;3.65;1.33;;;;;;;6.57;66.49;102297.84;5145000;28;20576;-73
2023/02/28 09:24:23;;;;;;;3.88;1.10;;;;;;;6.84;69.86;102287.66;5140489;28;20022;-74
2023/02/28 09:26:53;;;;;;;4.03;1.50;;;;;;;7.00;70.60;102291.22;5153587;28;20408;-73
2023/02/28 09:29:23;;;;;;;5.10;1.30;;;;;;;7.07;70.61;102290.41;5141206;28;20105;-73
2023/02/28 09:31:53;;;;;;;3.53;1.50;;;;;;;6.82;71.46;102299.78;5139789;28;20038;-78
2023/02/28 09:34:25;;;;;;;1.75;1.20;;;;;;;7.03;69.47;102299.03;5150683;28;20038;-75
2023/02/28 09:36:55;;;;;;;3.55;1.50;;;;;;;7.14;71.42;102292.19;5143425;28;20161;-73
2023/02/28 09:39:26;;;;;;;3.25;1.30;;;;;;;7.38;69.93;102294.03;5128772;28;20033;-73
2023/02/28 09:41:57;;;;;;;4.72;1.27;;;;;;;7.54;69.38;102289.78;5142675;28;20027;-74
2023/02/28 09:44:37;;;;;;;2.75;1.40;;;;;;;7.37;71.04;102296.66;5147256;28;20554;-74
2023/02/28 09:47:33;;;;;;;2.25;1.10;;;;;;;7.50;70.20;102291.50;5147858;28;20026;-74
2023/02/28 09:50:18;;;;;;;4.10;1.42;;;;;;;7.53;68.76;102299.31;5141818;28;20069;-75
2023/02/28 09:52:50;;;;;;;2.72;1.20;;;;;;;7.67;68.64;102279.44;5144312;28;20088;-72
2023/02/28 09:55:33;;;;;;;2.45;0.90;;;;;;;7.25;64.40;102295.72;5144526;28;20022;-75
2023/02/28 09:58:04;;;;;;;2.90;1.00;;;;;;;7.20;65.23;102297.41;5145641;28;20030;-74
2023/02/28 10:00:40;;;;;;;2.70;1.10;;;;;;;7.22;68.75;102289.63;5148345;28;20041;-73
2023/02/28 10:03:10;;;;;;;;;;;;;;;7.18;67.71;102294.81;5144189;28;20030;-72
2023/02/28 10:05:50;;;;;;;5.73;1.50;;;;;;;7.37;66.07;102301.84;5147439;28;19925;-74
2023/02/28 10:08:29;;;;;;;2.17;1.25;;;;;;;7.33;65.65;102300.97;5154720;28;20056;-73
2023/02/28 10:11:04;;;;;;;3.65;0.95;;;;;;;7.16;66.32;102304.34;5149654;28;20034;-73
2023/02/28 10:14:00;;;;;;;4.55;1.40;;;;;;;6.73;64.93;102311.84;5134425;28;20031;-75
2023/02/28 10:16:32;;;;;;;2.78;1.13;;;;;;;7.02;65.40;102302.50;5141530;28;20149;-73
2023/02/28 10:19:09;;;;;;;2.75;1.10;;;;;;;6.82;65.90;102306.69;5141190;28;20572;-73
2023/02/28 10:21:58;;;;;;;3.38;1.48;;;;;;;6.74;66.97;102300.59;5130890;28;20026;-73
2023/02/28 10:24:53;;;;;;;3.40;1.30;;;;;;;6.52;67.98;102299.53;5146310;28;20279;-73
2023/02/28 10:27:29;;;;;;;2.30;1.20;;;;;;;6.59;67.04;102305.66;5132633;28;20054;-74
2023/02/28 10:30:00;;;;;;;;;;;;;;;6.83;67.06;102301.53;5149353;28;20038;-74
2023/02/28 10:32:37;;;;;;;2.70;1.08;;;;;;;6.78;66.11;102300.59;5148454;28;19926;-73
2023/02/28 10:35:17;;;;;;;3.92;1.40;;;;;;;6.78;65.06;102299.75;5147443;28;20034;-73
2023/02/28 10:37:55;;;;;;;2.25;1.13;;;;;;;6.70;64.34;102304.88;5148159;28;20634;-74
2023/02/28 10:40:32;;;;;;;2.22;1.20;;;;;;;7.02;66.41;102302.50;5146374;28;20037;-74
2023/02/28 10:43:19;;;;;;;3.58;1.50;;;;;;;6.29;60.29;102307.97;5143893;28;20031;-73
2023/02/28 10:45:59;;;;;;;2.10;1.10;;;;;;;6.63;63.57;102304.81;5146206;28;20085;-73
2023/02/28 10:48:52;;;;;;;2.92;1.40;;;;;;;6.97;64.40;102309.41;5146495;28;20049;-73
2023/02/28 10:51:23;;;;;;;3.50;1.25;;;;;;;6.34;63.86;102299.38;5147945;28;20033;-72
2023/02/28 10:53:55;;;;;;;3.83;1.23;;;;;;;6.67;62.67;102289.28;5147581;28;20026;-72
2023/02/28 10:56:25;;;;;;;4.55;1.83;;;;;;;6.34;61.49;102301.97;5155605;28;20030;-73
2023/02/28 10:59:07;;;;;;;3.13;1.02;;;;;;;6.69;62.09;102303.16;5153926;28;20446;-73
2023/02/28 11:01:45;;;;;;;3.50;0.98;;;;;;;6.58;61.79;102293.53;5131467;28;20057;-73
2023/02/28 11:04:29;;;;;;;2.67;1.00;;;;;;;6.21;61.71;102296.63;5143072;28;20061;-73
2023/02/28 11:07:16;;;;;;;2.58;1.27;;;;;;;5.79;62.07;102306.59;5127415;28;20334;-73
2023/02/28 11:09:52;;;;;;;2.38;1.20;;;;;;;6.28;65.50;102291.50;5148271;28;20034;-74
2023/02/28 11:12:28;;;;;;;3.58;1.40;;;;;;;6.42;64.25;102289.06;5145557;28;20027;-73
2023/02/28 11:15:25;;;;;;;2.92;1.40;;;;;;;6.17;63.89;102290.56;5160261;28;20563;-73
2023/02/28 11:18:19;;;;;;;3.75;1.33;;;;;;;6.26;61.11;102279.41;5143435;28;20030;-73
2023/02/28 11:20:55;;;;;;;2.55;1.15;;;;;;;6.18;63.28;102281.03;5149653;28;20134;-75
2023/02/28 11:23:28;;;;;;;1.90;1.00;;;;;;;6.30;62.42;102275.97;5145364;28;20034;-74
2023/02/28 11:26:02;;;;;;;2.60;1.02;;;;;;;6.44;62.54;102279.56;5146660;28;20030;-73
2023/02/28 11:28:34;;;;;;;3.05;1.10;;;;;;;5.95;61.72;102286.00;5146427;28;20031;-74
2023/02/28 11:31:11;;;;;;;3.83;1.10;;;;;;;5.34;61.19;102281.78;5153960;28;20261;-74
2023/02/28 11:33:48;;;;;;;2.65;1.08;;;;;;;5.40;59.90;102288.78;5152655;28;20427;-73
2023/02/28 11:36:24;;;;;;;2.55;1.10;;;;;;;5.30;60.08;102274.81;5155487;28;20083;-74
2023/02/28 11:39:12;;;;;;;4.03;1.15;;;;;;;5.22;59.54;102274.72;5154124;28;20440;-74
2023/02/28 11:42:04;;;;;;;3.25;0.90;;;;;;;5.34;60.41;102274.00;5147818;28;20589;-74
2023/02/28 11:44:43;;;;;;;1.98;0.98;;;;;;;5.31;60.03;102261.88;5148613;28;20041;-74
2023/02/28 11:47:31;;;;;;;2.15;1.00;;;;;;;5.18;61.59;102275.50;5151017;28;20037;-73
2023/02/28 11:50:33;;;;;;;2.25;1.08;;;;;;;5.10;59.91;102273.66;5132332;28;20031;-73
2023/02/28 11:53:33;;;;;;;3.50;1.05;;;;;;;5.07;59.67;102264.16;5145144;28;20390;-73
2023/02/28 11:56:34;;;;;;;2.33;1.00;;;;;;;5.02;62.17;102268.41;5145303;28;20030;-73
2023/02/28 11:59:55;;;;;;;2.45;1.00;;;;;;;4.82;59.53;102266.38;5149096;28;20232;-73
2023/02/28 12:02:47;;;;;;;1.92;0.98;;;;;;;5.10;61.68;102264.19;5123071;28;20093;-72